Tiempo atmosférico en la estación meteorológica de Alicante/Alacant Aeropuerto, Alacant/Alicante (43 m.)



Fecha
DESCASC
Temp. máxima en grados centígrados (hora)
DESCASC
Temp. mínima en grados centígrados (hora)
DESCASC
Temp. media en grados centígrados
DESCASC
Racha de viento máxima en m/sg (hora)
DESCASC
Velocidad máxima media en intervalos de 10 minutos(hora)
DESCASC
Precipitaciones diarias en mm
DESCASC
Precipitaciones de 00:00 a 06:00 en mm
DESCASC
Precipitaciones de 06:00 a 12:00 en mm
DESCASC
Precipitaciones de 12:00 a 18:00 en mm
DESCASC
Precipitaciones de 18:00 a 24:00 en mm
DESCASC

Gráficas

Temp. máximas Temp. mínimas Temp. medias Precipitaciones Rachas de viento máximas Velocidades máximas media en intervalos de 10 minutos

Datos horarios

Fecha y hora oficial Temperatura (ºC) Velocidad del viento (km/h) Dirección del viento Racha (km/h) Dirección de racha Precipitación (mm) Presión (hPa) Tendencia (hPa) Humedad (%)
2019-08-17 23:00:00 25.7 5 Sudeste 9 Sudeste 0 1010.1 0.9 90
2019-08-17 22:00:00 26 7 Este 11 Este 0 1009.5 -0.2 84
2019-08-17 21:00:00 26.7 8 Nordeste 15 Este 0 1009.1 -1.1 77
2019-08-17 20:00:00 28.2 10 Este 17 Este 0 1009.2 -1.3 68
2019-08-17 19:00:00 29.4 11 Este 22 Este 0 1009.7 -1.3 61
2019-08-17 18:00:00 30.2 13 Este 24 Este 0 1010.2 -1.6 55
2019-08-17 17:00:00 30.7 13 Este 28 Este 0 1010.5 -1.6 51
2019-08-17 16:00:00 31.1 16 Este 26 Este 0 1011 -1.4 49
2019-08-17 15:00:00 31.3 15 Este 28 Este 0 1011.8 -0.9 48
2019-08-17 14:00:00 31.4 18 Este 28 Norte 0 1012.1 -0.6 51
2019-08-17 13:00:00 31.8 17 Este 24 Este 0 1012.4 -0.3 46
2019-08-17 12:00:00 31.4 14 Este 21 Este 0 1012.7 0.2 44
2019-08-17 11:00:00 30.5 6 Sudeste 11 Sudeste 0 1012.7 0.6 37
2019-08-17 10:00:00 28.5 6 Sur 9 Sur 0 1012.7 0.9 42
2019-08-17 09:00:00 26.2 0 Calma 5 Norte 0 1012.5 1 56
2019-08-17 08:00:00 23.6 0 Calma 8 Nordeste 0 1012.1 0.2 63
2019-08-17 07:00:00 21.5 5 Noroeste 11 Noroeste 0 1011.8 -0.4 74
2019-08-17 06:00:00 21.6 8 Oeste 9 Oeste 0 1011.5 -1.1 82
2019-08-17 05:00:00 21.6 7 Oeste -- -- 0 1011.9 -1 84
2019-08-17 04:00:00 22.2 6 Noroeste 8 Noroeste 0 1012.2 -1 82
2019-08-17 03:00:00 22.4 6 Oeste 8 Oeste 0 1012.6 -0.6 81
2019-08-17 02:00:00 23.4 4 Oeste 5 Oeste 0 1012.9 -0.5 81
2019-08-17 01:00:00 24.5 0 Calma -- -- 0 1013.2 0 83
2019-08-17 00:00:00 25.2 0 Calma 5 Oeste 0 1013.2 0.5 82
2019-08-16 23:00:00 25.4 0 Calma 9 Sudeste 0 1013.4 1 82
2019-08-16 22:00:00 25.6 5 Sudeste 11 Este 0 1013.2 0.9 80
2019-08-16 21:00:00 26.2 8 Este 15 Norte 0 1012.7 0 75
2019-08-16 20:00:00 27.2 10 Este 18 Este 0 1012.4 -0.8 69
2019-08-16 19:00:00 27.9 13 Este 24 Este 0 1012.3 -1.3 69
2019-08-16 18:00:00 28.6 15 Este 26 Este 0 1012.7 -1.4 65
2019-08-16 17:00:00 29.5 17 Este 28 Este 0 1013.2 -1.1 58
2019-08-16 16:00:00 30.2 16 Este 32 Este 0 1013.6 -1.3 53
2019-08-16 15:00:00 30.2 17 Este 26 Este 0 1014.1 -1.1 50
2019-08-16 14:00:00 29.6 17 Este 28 Este 0 1014.3 -0.9 54
2019-08-16 13:00:00 29.5 15 Este 24 Este 0 1014.9 -0.1 56
2019-08-16 12:00:00 28.9 14 Este 22 Este 0 1015.2 0.3 59
2019-08-16 11:00:00 27.7 10 Este 18 Este 0 1015.2 0.6 65
2019-08-16 10:00:00 27.4 11 Nordeste 21 Este 0 1015 1 65
2019-08-16 09:00:00 27.4 10 Nordeste 18 Norte 0 1014.9 0.9 43
2019-08-16 08:00:00 23.1 6 Norte 15 Norte 0 1014.6 0.7 55
2019-08-16 07:00:00 21.6 7 Norte 13 Nordeste 0 1014 0.2 60
2019-08-16 06:00:00 22.8 8 Norte 11 Norte 0 1014 0.1 59
2019-08-16 05:00:00 22.4 9 Norte 13 Norte 0 1013.9 -0.4 69
2019-08-16 04:00:00 21.7 7 Nordeste 13 Norte 0 1013.8 -0.7 77
2019-08-16 03:00:00 22.7 6 Nordeste -- -- -- 1013.9 -0.6 76
2019-08-16 02:00:00 22.8 6 Norte 9 Norte 0 1014.3 -0.1 71
2019-08-16 01:00:00 23.3 2 Nordeste 5 Nordeste 0 1014.5 0.5 74
2019-08-16 00:00:00 25.9 4 Sudeste -- -- 0 1014.5 0.9 62
2019-08-15 23:00:00 25.4 2 Este 8 Sur 0 1014.4 0.9 74
2019-08-15 22:00:00 25.6 5 Sudeste 8 Sudeste 0 1014 0.6 76
2019-08-15 21:00:00 26.5 6 Sudeste 13 Este 0 1013.6 0.2 69
2019-08-15 20:00:00 27.9 9 Sudeste 18 Este 0 1013.5 -0.1 61
2019-08-15 19:00:00 28.6 13 Este 22 Sudeste 0 1013.4 -0.6 58
2019-08-15 18:00:00 29.2 16 Este 24 Este 0 1013.4 -0.8 55
2019-08-15 17:00:00 29.7 17 Este 26 Este 0 1013.6 -0.8 52
2019-08-15 16:00:00 30.4 17 Este 30 Sudeste 0 1014 -0.8 50
2019-08-15 15:00:00 31.7 17 Sudeste 30 Este 0 1014.2 -0.8 37
2019-08-15 14:00:00 31.8 16 Este 28 Este 0 1014.4 -0.6 38
2019-08-15 13:00:00 30.5 16 Este 26 Este 0 1014.8 -0.2 45
2019-08-15 12:00:00 30.7 13 Sudeste 22 Sudeste 0 1015 0.2 41
2019-08-15 11:00:00 29.3 5 Sur 15 Sur 0 1015 0.4 51
2019-08-15 10:00:00 27.4 4 Sur 15 Norte 0 1015 0.8 64
2019-08-15 09:00:00 25.2 10 Noroeste 15 Noroeste 0 1014.8 0.9 79
2019-08-15 08:00:00 22.6 7 Noroeste 11 Noroeste 0 1014.6 0.7 88
2019-08-15 07:00:00 22.3 6 Noroeste 11 Noroeste 0 1014.2 0.3 88
2019-08-15 06:00:00 23.1 6 Noroeste -- -- 0 1013.9 -0.1 86
2019-08-15 05:00:00 22.5 3 Noroeste 8 Oeste 0 1013.9 -0.6 87
2019-08-15 04:00:00 22.7 2 Oeste 5 Oeste 0 1013.9 -0.9 86
2019-08-15 03:00:00 23.2 4 Oeste -- -- 0 1014 -0.6 84
2019-08-15 02:00:00 24 7 Oeste 8 Oeste 0 1014.5 -0.1 82
2019-08-15 01:00:00 24.6 0 Calma 5 Oeste 0 1014.8 0.6 81
2019-08-15 00:00:00 25.1 5 Oeste 8 Oeste 0 1014.6 0.7 78
2019-08-14 23:00:00 25 0 Calma 5 Sur 0 1014.6 0.9 77
2019-08-14 22:00:00 25.6 0 Calma 13 Sudeste 0 1014.2 0.7 75
2019-08-14 21:00:00 26.5 8 Sudeste 15 Sudeste 0 1013.9 0.2 69
2019-08-14 20:00:00 27.6 8 Sur 18 Sudeste 0 1013.7 -0.1 63
2019-08-14 19:00:00 28.5 10 Sur 22 Sudeste 0 1013.5 -0.6 59
2019-08-14 18:00:00 29.6 14 Sur 24 Sur 0 1013.7 -1.1 51
2019-08-14 17:00:00 30.6 13 Sur 30 Sur 0 1013.8 -1.4 49
2019-08-14 16:00:00 30.3 16 Sur 33 Sudeste 0 1014.1 -1.5 51
2019-08-14 15:00:00 30.1 13 Sur 30 Sudeste 0 1014.8 -1.3 53
2019-08-14 14:00:00 29.7 13 Sur 22 Sur 0 1015.2 -1 54
2019-08-14 13:00:00 29.7 11 Sur 22 Sur 0 1015.6 -0.6 52
2019-08-14 12:00:00 28.9 9 Sur 18 Sudoeste 0 1016.1 0.1 56
2019-08-14 11:00:00 27.7 6 Sur 18 Sur 0 1016.2 0.5 57
2019-08-14 10:00:00 26.2 5 Sudoeste 11 Sudoeste 0 1016.2 0.8 63
2019-08-14 09:00:00 24.6 8 Oeste 15 Noroeste 0 1016 0.7 69
2019-08-14 08:00:00 21.7 10 Noroeste 15 Noroeste 0 1015.7 0.5 81
2019-08-14 07:00:00 21.9 8 Noroeste 15 Norte 0 1015.4 0.1 80
2019-08-14 06:00:00 21.7 7 Oeste 11 Noroeste 0 1015.3 -0.2 81
2019-08-14 05:00:00 22 6 Noroeste 8 Oeste 0 1015.2 -0.5 81
2019-08-14 04:00:00 22.6 5 Noroeste 8 Noroeste 0 1015.3 -0.5 79
2019-08-14 03:00:00 22.5 0 Calma 5 Oeste 0 1015.5 -0.1 78
2019-08-14 02:00:00 23 0 Calma 5 Noroeste 0 1015.7 0.2 76
2019-08-14 01:00:00 24 0 Calma 8 Este 0 1015.8 0.8 73
2019-08-14 00:00:00 24.7 5 Nordeste 9 Este 0 1015.6 1.1 71
2019-08-13 23:00:00 24.8 5 Este 15 Este 0 1015.5 1.5 71
2019-08-13 22:00:00 25.1 9 Este 15 Este 0 1015 1.2 70
2019-08-13 21:00:00 25.4 12 Este 24 Este 0 1014.5 0.7 68
2019-08-13 20:00:00 26.1 18 Este 28 Este 0 1014 0.1 64
2019-08-13 19:00:00 26.9 22 Este 35 Este 0 1013.8 -0.5 60
2019-08-13 18:00:00 27.2 23 Este 35 Este 0 1013.8 -0.8 61
2019-08-13 17:00:00 28.2 25 Este 39 Este 0 1013.9 -0.8 57
2019-08-13 16:00:00 28.2 26 Este 37 Norte 0 1014.3 -0.6 54
2019-08-13 15:00:00 28.5 26 Nordeste 45 Este 0 1014.6 -0.2 53
2019-08-13 14:00:00 28.4 30 Este 46 Este 0 1014.7 0.1 53
2019-08-13 13:00:00 28.3 31 Este 48 Este 0 1014.9 0.6 54
2019-08-13 12:00:00 28.4 32 Este 46 Este 0 1014.8 1 53
2019-08-13 11:00:00 27.6 33 Este 46 Este 0 1014.6 1.1 61
2019-08-13 10:00:00 27.1 30 Este 45 Este 0 1014.3 1.3 61
2019-08-13 09:00:00 26.2 23 Nordeste 39 Este 0 1013.8 1 63
2019-08-13 08:00:00 25.8 30 Nordeste 42 Nordeste 0 1013.5 0.9 60
2019-08-13 07:00:00 25.2 22 Nordeste 35 Este 0 1013 0.5 71
2019-08-13 06:00:00 24.4 9 Nordeste 15 Nordeste 0 1012.8 -0.7 57
2019-08-13 05:00:00 24.4 10 Norte 15 Norte 0 1012.6 -1.1 57
2019-08-13 04:00:00 24.5 8 Norte 11 Norte 0 1012.5 -1 65
2019-08-13 03:00:00 25.2 7 Norte -- -- -- 1013.5 0.3 67
2019-08-13 02:00:00 25.7 13 Nordeste 28 Nordeste 0 1013.7 1.2 67
2019-08-13 01:00:00 26.1 18 Nordeste 39 Este 0 1013.5 1.9 69
2019-08-13 00:00:00 26.1 25 Este 45 Este 0 1013.2 2.6 72
2019-08-12 23:00:00 26.1 30 Este 46 Este 0 1012.5 2.7 77
2019-08-12 22:00:00 26.1 32 Este 46 Este 0 1011.6 2.1 79
2019-08-12 21:00:00 26.5 32 Este 45 Este 0 1010.6 0.8 78
2019-08-12 20:00:00 27.7 30 Este 45 Este 0 1009.8 -0.1 71
2019-08-12 19:00:00 27.6 35 Este 48 Este 0 1009.5 -0.6 69
2019-08-12 18:00:00 28.1 35 Este 46 Este 0 1009.8 -0.6 65
2019-08-12 17:00:00 29.1 34 Este 46 Este 0 1009.9 -0.8 57
2019-08-12 16:00:00 30.5 32 Este 46 Este 0 1010.1 -0.6 52
2019-08-12 15:00:00 30.3 30 Este 39 Norte 0 1010.4 0.1 51
2019-08-12 14:00:00 30.8 26 Este 37 Sudeste 0 1010.7 0.7 53
2019-08-12 13:00:00 32.2 21 Sudeste 33 Sudeste 0 1010.7 1 32
2019-08-12 12:00:00 33.7 9 Sudeste 17 Este 0 1010.3 1 16
2019-08-12 11:00:00 31.9 9 Sudoeste 17 Sudoeste 0 1010 1.2 21
2019-08-12 10:00:00 29.4 10 Oeste 17 Oeste 0 1009.7 1.6 36
2019-08-12 09:00:00 27.6 11 Oeste 15 Oeste 0 1009.3 1.8 29
2019-08-12 08:00:00 25.9 8 Oeste 17 Noroeste 0 1008.8 1.9 26
2019-08-12 07:00:00 26.1 13 Noroeste 17 Noroeste 0 1008.1 0.9 23
2019-08-12 06:00:00 27.5 10 Noroeste 26 Noroeste 0 1007.5 -0.2 20
2019-08-12 05:00:00 28.4 13 Noroeste 30 Oeste 0 1006.9 -1.5 18
2019-08-12 04:00:00 26.9 13 Sudoeste 18 Sudoeste 0 1007.2 -2.1 31
2019-08-12 03:00:00 26 10 Sudoeste -- -- -- 1007.7 -2.1 83
2019-08-12 02:00:00 26.6 4 Oeste 9 Oeste 0 1008.4 -1.6 82
2019-08-12 01:00:00 26.4 7 Oeste 9 Oeste 0 1009.3 0.1 83
2019-08-12 00:00:00 26.6 0 Calma 11 Sudeste 0 1009.8 1.5 83
2019-08-11 23:00:00 26.6 0 Calma 9 Sudeste 0 1010 2.2 84
2019-08-11 22:00:00 26.8 5 Sudeste 13 Sudeste 0 1009.2 1.6 84
2019-08-11 21:00:00 27.6 9 Este 15 Sudeste 0 1008.3 0.1 78
2019-08-11 20:00:00 28.8 10 Sudeste 17 Este 0 1007.8 -0.9 71
2019-08-11 19:00:00 29.4 12 Este 22 Este 0 1007.6 -1.5 69
2019-08-11 18:00:00 29.7 13 Este 28 Este 0 1008.2 -1.4 68
2019-08-11 17:00:00 30.4 15 Este 28 Este 0 1008.7 -1.1 66
2019-08-11 16:00:00 30 17 Sudeste 32 Este 0 1009.1 -1.1 68
2019-08-11 15:00:00 30.4 19 Sudeste 32 Este 0 1009.6 -0.8 67
2019-08-11 14:00:00 30.8 17 Sudeste 32 Este 0 1009.8 -0.3 65
2019-08-11 13:00:00 31.1 16 Sudeste 28 Sudeste 0 1010.2 -0.2 64
2019-08-11 12:00:00 30.8 14 Sudeste 24 Sudeste 0 1010.4 0 64
2019-08-11 11:00:00 29.3 6 Este 15 Este 0 1010.1 -0.3 69
2019-08-11 10:00:00 27.8 3 Oeste 9 Oeste 0 1010.4 0.8 79
2019-08-11 09:00:00 26.6 2 Oeste 11 Oeste 0 1010.4 1.2 89
2019-08-11 08:00:00 25.9 5 Oeste 15 Este 0.1 1010.4 1.5 90
2019-08-11 07:00:00 25.8 0 Calma 11 Este 0 1009.6 0.1 85
2019-08-11 06:00:00 25.4 10 Este 17 Este 0 1009.2 -1.3 84
2019-08-11 05:00:00 25.5 9 Nordeste 13 Nordeste 0 1008.9 -2.2 86
2019-08-11 04:00:00 25.5 9 Norte 13 Norte 0 1009.5 -1.4 88
2019-08-11 03:00:00 25.2 0 Calma -- -- -- 1010.5 -0.7 85
2019-08-11 02:00:00 25.7 0 Calma 5 Norte 0 1011.1 -0.2 85
2019-08-11 01:00:00 26.6 0 Calma 8 Sudeste 0 1010.9 0.2 86
2019-08-11 00:00:00 27.1 5 Sudeste 13 Este 0 1011.2 0.6 77
2019-08-10 23:00:00 27.9 6 Nordeste 15 Este 0 1011.3 0.7 70
2019-08-10 22:00:00 28 8 Nordeste 17 Nordeste 0 1010.7 0 74
2019-08-10 21:00:00 28.3 6 Nordeste 17 Norte 0 1010.6 -0.4 76
2019-08-10 20:00:00 29 10 Este 18 Nordeste 0 1010.6 -0.6 74
2019-08-10 19:00:00 30 13 Este 22 Este 0 1010.7 -0.6 68
2019-08-10 18:00:00 31.4 16 Este 28 Este 0 1011 -0.6 56
2019-08-10 17:00:00 31.9 18 Este 32 Este 0 1011.2 -0.7 51
2019-08-10 16:00:00 33.7 19 Este 33 Este 0 1011.3 -0.6 41
2019-08-10 15:00:00 33.5 18 Este 30 Este 0 1011.6 -0.8 44
2019-08-10 14:00:00 33.5 18 Este 33 Este 0 1011.9 0 45
2019-08-10 13:00:00 33.6 22 Este 32 Norte 0 1011.9 0.2 45
2019-08-10 12:00:00 33.3 16 Este 24 Este 0 1012.4 1.3 45
2019-08-10 11:00:00 32.3 9 Este 18 Nordeste 0 1011.9 1.5 56
2019-08-10 10:00:00 31.2 11 Nordeste 17 Nordeste 0 1011.7 2.1 52
2019-08-10 09:00:00 31.8 8 Este 21 Noroeste 0 1011.1 1.8 34
2019-08-10 08:00:00 29.6 13 Noroeste 22 Noroeste 0 1010.4 1.2 37
2019-08-10 07:00:00 29.4 15 Noroeste 21 Noroeste 0 1009.6 0.2 38
2019-08-10 06:00:00 28.3 12 Oeste 15 Oeste 0 1009.3 -0.1 40
2019-08-10 05:00:00 26.4 6 Sudoeste 13 Sudoeste 0 1009.2 -0.3 56
2019-08-10 04:00:00 23.7 7 Sudoeste 11 Sudoeste 0 1009.4 -0.2 82
2019-08-10 03:00:00 24.1 0 Calma -- -- -- 1009.4 -0.2 84
2019-08-10 02:00:00 25.8 2 Oeste 8 Oeste 0 1009.5 0.1 84
2019-08-10 01:00:00 25.4 0 Calma 8 Sur 0 1009.6 0.8 85
2019-08-10 00:00:00 26.7 3 Norte 9 Norte 0 1009.6 1.5 79
2019-08-09 23:00:00 27 0 Calma 4 Sur 0 1009.4 1.7 80
2019-08-09 22:00:00 27.3 3 Sudeste 11 Este 0 1008.8 1.1 79
2019-08-09 21:00:00 28.2 10 Este 22 Este 0 1008.1 0.2 71
2019-08-09 20:00:00 31.9 15 Este 24 Nordeste 0 1007.7 -0.4 47
2019-08-09 19:00:00 34.5 8 Sudeste 26 Sur 0 1007.7 -0.5 27
2019-08-09 18:00:00 35.5 16 Sur 32 Sur 0 1007.9 -0.8 27
2019-08-09 17:00:00 35.7 21 Sur 35 Sur 0 1008.1 -1 31
2019-08-09 16:00:00 37.6 21 Sur 30 Sur 0 1008.2 -0.9 25
2019-08-09 15:00:00 37.4 19 Sur 32 Sur 0 1008.7 -0.6 26
2019-08-09 14:00:00 37.6 17 Sur 30 Sur 0 1009.1 -0.1 27
2019-08-09 13:00:00 36.7 19 Sur 30 Sur 0 1009.1 -0.1 30
2019-08-09 12:00:00 37.2 15 Sudoeste 24 Sudoeste 0 1009.3 0.2 21
2019-08-09 11:00:00 34.6 14 Sudoeste 22 Sudoeste 0 1009.2 0.3 26
2019-08-09 10:00:00 30.8 12 Sudoeste 21 Sudoeste 0 1009.2 0.5 37
2019-08-09 09:00:00 26.9 13 Sudoeste 22 Sudoeste 0 1009.1 0.6 49
2019-08-09 08:00:00 24 13 Sudoeste 21 Sudoeste 0 1008.9 0.3 52
2019-08-09 07:00:00 22.4 14 Sudoeste 18 Sudoeste 0 1008.7 -0.1 60
2019-08-09 06:00:00 22.2 9 Sudoeste 11 Oeste 0 1008.5 -0.6 62
2019-08-09 05:00:00 24.5 0 Calma 11 Oeste 0 1008.6 -0.6 53
2019-08-09 04:00:00 24.2 6 Oeste 13 Oeste 0 1008.8 -0.6 58
2019-08-09 03:00:00 24.2 12 Oeste -- -- -- 1009.1 -0.2 63
2019-08-09 02:00:00 24.3 2 Oeste 5 Sudoeste 0 1009.2 -0.2 67
2019-08-09 01:00:00 25.7 0 Calma 4 Norte 0 1009.4 0.4 66
2019-08-09 00:00:00 27.9 0 Calma 8 Norte 0 1009.3 0.8 55
2019-08-08 23:00:00 28.1 0 Calma 5 Noroeste 0 1009.4 1 59
2019-08-08 22:00:00 27.7 0 Calma 9 Sur 0 1009 0.6 66
2019-08-08 21:00:00 28.9 6 Sur 9 Sur 0 1008.5 0.1 64
2019-08-08 20:00:00 30.2 4 Sur 17 Sur 0 1008.4 0 59
2019-08-08 19:00:00 31.4 10 Sur 28 Sudeste 0 1008.4 -0.4 58
2019-08-08 18:00:00 32.7 9 Sur 21 Sudoeste 0 1008.4 -0.6 44
2019-08-08 17:00:00 33.1 11 Sur 22 Sur 0 1008.4 -1.1 43
2019-08-08 16:00:00 34.2 14 Sudeste 30 Este 0 1008.8 -1.3 40
2019-08-08 15:00:00 34.9 11 Este 26 Este 0 1009 -1.2 36
2019-08-08 14:00:00 33.3 17 Este 28 Este 0 1009.5 -0.4 52
2019-08-08 13:00:00 32.5 14 Este 24 Este 0 1010.1 0.5 48
2019-08-08 12:00:00 31.1 16 Este 24 Norte 0 1010.2 0.9 62
2019-08-08 11:00:00 29.8 6 Sudeste 17 Este 0 1009.9 0.9 64
2019-08-08 10:00:00 28.1 6 Sudeste 11 Sudeste 0 1009.6 1.1 75
2019-08-08 09:00:00 27.4 6 Nordeste 13 Norte 0 1009.3 1.5 76
2019-08-08 08:00:00 25 5 Norte 13 Norte 0 1009 1.8 66
2019-08-08 07:00:00 25.2 8 Norte -- -- 0 1008.5 1.2 52
2019-08-08 06:00:00 23.4 6 Noroeste 9 Norte 0 1007.8 -- 50
2019-08-08 05:00:00 24.2 4 Norte 9 Sudoeste 0 1007.2 -0.8 46
2019-08-08 04:00:00 26.9 0 Calma 13 Oeste 0 1007.3 -- 34
2019-08-08 03:00:00 25.6 8 Oeste 17 Oeste 0 -- -- 46
2019-08-08 02:00:00 26.2 11 Sudoeste 15 Sudoeste 0 1008 -0.6 44
2019-08-08 01:00:00 27.3 3 Noroeste 15 Noroeste 0 -- -- 42
2019-08-08 00:00:00 28.1 7 Noroeste 13 Norte 0 1008.6 1.5 45
2019-08-07 23:00:00 28.7 2 Noroeste 13 Norte 0 1008.6 2 53
2019-08-07 22:00:00 29.8 3 Nordeste 9 Sudeste 0 1008 1.5 53
2019-08-07 21:00:00 29.6 6 Este 13 Norte 0 1007.1 0.3 51
2019-08-07 20:00:00 30.6 9 Este 13 Este 0 1006.6 -0.4 51
2019-08-07 19:00:00 30.7 11 Este 17 Nordeste 0 1006.5 -0.7 54
2019-08-07 18:00:00 30.1 13 Este 24 Este 0 1006.8 -0.6 62
2019-08-07 17:00:00 30.4 15 Este 30 Este 0 1007 0 62
2019-08-07 16:00:00 31.9 21 Este 33 Este 0 1007.2 0.1 55
2019-08-07 15:00:00 31.4 22 Este 30 Este 0 1007.4 0.5 62
2019-08-07 14:00:00 32.5 18 Este 30 Nordeste 0 1007 0.3 54
2019-08-07 13:00:00 33.5 21 Nordeste 30 Este 0 1007.1 0.9 49
2019-08-07 12:00:00 37.2 16 Oeste 35 Noroeste 0 1006.9 1.1 16
2019-08-07 11:00:00 35.5 19 Oeste 32 Noroeste 0 1006.7 0.7 17
2019-08-07 10:00:00 29.7 12 Oeste 22 Sudoeste 0 1006.2 0.7 46
2019-08-07 09:00:00 25.8 12 Sudoeste 21 Oeste 0 1005.8 0.3 71
2019-08-07 08:00:00 22.7 10 Sudoeste 17 Sudoeste 0 1006 0.4 79
2019-08-07 07:00:00 22.6 9 Oeste 11 Oeste 0 1005.5 0 88
2019-08-07 06:00:00 23.7 8 Oeste 13 Oeste 0 1005.5 -0.1 88
2019-08-07 05:00:00 24 8 Oeste 11 Oeste 0 1005.6 -0.5 89
2019-08-07 04:00:00 24.2 9 Sudoeste 9 Sudoeste 0 1005.5 -1.8 88
2019-08-07 03:00:00 24.5 2 Oeste 8 Norte 0 1005.6 -2.1 86
2019-08-07 02:00:00 25.4 6 Norte 11 Nordeste 0 1006.1 -1.6 87
2019-08-07 01:00:00 25.9 3 Este 5 Este 0 1007.3 0.4 84
2019-08-07 00:00:00 26.2 0 Calma 9 Sur 0 1007.7 1.5 84
2019-08-06 23:00:00 26.2 8 Sur 11 Sur 0 1007.7 1.9 84
2019-08-06 22:00:00 26.6 2 Este 13 Sudeste 0 1006.9 1.1 83
2019-08-06 21:00:00 27.6 10 Este 15 Norte 0 1006.2 -0.1 77
2019-08-06 20:00:00 29.3 10 Este 18 Este 0 1005.8 -1 65
2019-08-06 19:00:00 30.1 11 Este 22 Este 0 1005.8 -1.8 61
2019-08-06 18:00:00 30.8 14 Este 28 Este 0 1006.3 -1.7 60
2019-08-06 17:00:00 32.8 17 Este 28 Este 0 1006.8 -1.8 51
2019-08-06 16:00:00 32.8 10 Sudeste 30 Este 0 1007.6 -1.6 54
2019-08-06 15:00:00 33 15 Este 32 Este 0 1008 -1.4 54
2019-08-06 14:00:00 32.9 6 Sudeste 24 Sur 0 1008.6 -1.1 54
2019-08-06 13:00:00 33 13 Sur 28 Este 0 1009.2 -0.6 55
2019-08-06 12:00:00 31.7 3 Sudeste 15 Sur 0 1009.4 -0.1 56
2019-08-06 11:00:00 29.1 7 Oeste 18 Sudoeste 0 1009.7 0.8 67
2019-08-06 10:00:00 27.7 10 Sudoeste 18 Oeste 0 1009.8 1 73
2019-08-06 09:00:00 26.1 12 Sudoeste 17 Oeste 0 1009.5 0.9 83
2019-08-06 08:00:00 24.1 8 Oeste 13 Oeste 0 1008.9 0.1 90
2019-08-06 07:00:00 23.1 7 Oeste 11 Oeste 0 1008.8 -0.2 91
2019-08-06 06:00:00 23.5 7 Sudoeste 9 Oeste 0 1008.6 -0.9 90
2019-08-06 05:00:00 24 8 Sudoeste 11 Sudoeste 0 1008.8 -0.8 88
2019-08-06 04:00:00 24.5 9 Noroeste 13 Noroeste 0 1009 -1 87
2019-08-06 03:00:00 24.5 4 Oeste 11 Sudoeste 0 1009.5 -0.7 87
2019-08-06 02:00:00 25.1 0 Calma 5 Oeste 0 1009.6 -0.4 85
2019-08-06 01:00:00 25.9 0 Calma -- -- 0 1010 0.7 84
2019-08-06 00:00:00 26.2 0 Calma 4 Sur 0 1010.2 2 83
2019-08-05 23:00:00 26.1 3 Sur 8 Sudeste 0 1010 1.8 83
2019-08-05 22:00:00 26.3 4 Sudeste 15 Este 0 1009.3 0.9 81
2019-08-05 21:00:00 26.8 8 Nordeste 21 Norte 0 1008.2 -0.7 78
2019-08-05 20:00:00 27.8 9 Este 17 Nordeste 0 1008.2 -0.9 71
2019-08-05 19:00:00 28.2 12 Este 24 Este 0 1008.4 -1.1 69
2019-08-05 18:00:00 29.4 15 Este 26 Este 0 1008.9 -1 61
2019-08-05 17:00:00 29.5 17 Este 28 Este 0 1009.1 -1.4 63
2019-08-05 16:00:00 30 16 Este 24 Este 0 1009.5 -1.3 62
2019-08-05 15:00:00 30.6 16 Este 26 Norte 0 1009.9 -1.2 60
2019-08-05 14:00:00 30.1 16 Este 30 Este 0 1010.5 -0.8 63
2019-08-05 13:00:00 30.4 15 Este 26 Norte 0 1010.8 -0.6 61
2019-08-05 12:00:00 30 12 Este 21 Este 0 1011.1 -0.4 63
2019-08-05 11:00:00 28.8 3 Este 15 Nordeste 0 1011.3 0.3 66
2019-08-05 10:00:00 28.2 7 Nordeste 13 Norte 0 1011.4 1.1 72
2019-08-05 09:00:00 25.8 0 Calma 9 Norte 0 1011.5 1.8 84
2019-08-05 08:00:00 24.2 2 Sudoeste 9 Norte 0 1011 1.6 86
2019-08-05 07:00:00 24 5 Norte 13 Norte 0 1010.3 0.4 86
2019-08-05 06:00:00 23.1 5 Norte 8 Norte 0 1009.7 -0.7 88
2019-08-05 05:00:00 23.5 4 Norte 5 Norte 0 1009.4 -1.7 88
2019-08-05 04:00:00 23.9 5 Oeste 9 Noroeste 0 1009.9 -1.6 87
2019-08-05 03:00:00 24.3 6 Noroeste 8 Noroeste 0 1010.4 -0.9 87
2019-08-05 02:00:00 25 5 Noroeste 11 Noroeste 0 1011.1 0.2 85
2019-08-05 01:00:00 25.4 5 Oeste 5 Oeste 0 1011.5 1.3 85
2019-08-05 00:00:00 25.3 2 Sudoeste 5 Sur 0 1011.3 1.9 84
2019-08-04 23:00:00 25.7 4 Sudeste 9 Sudeste 0 1010.9 1.9 83
2019-08-04 22:00:00 26.3 5 Sudeste 11 Sudeste 0 1010.2 1.3 81
2019-08-04 21:00:00 26.7 8 Este 15 Sudeste 0 1009.4 0.4 78
2019-08-04 20:00:00 27.9 10 Este 18 Este 0 1009 -- 71
2019-08-04 19:00:00 29.5 13 Este 28 Este 0 1008.9 -0.6 59
2019-08-04 18:00:00 31.2 16 Este 26 Este 0 1009 -1.1 56
2019-08-04 17:00:00 31.5 14 Este 22 Este 0 -- -- 46
2019-08-04 16:00:00 31.6 12 Este 21 Sudeste 0 1009.5 -2 45
2019-08-04 15:00:00 31.2 12 Este 24 Este 0 1010.1 -1.6 48
2019-08-04 14:00:00 30.5 13 Este 26 Este 0 1010.7 -1 50
2019-08-04 13:00:00 30.2 14 Este 24 Este 0 1011.5 0 52
2019-08-04 12:00:00 29.1 12 Este 21 Este 0 1011.7 1.1 57
2019-08-04 11:00:00 28.8 4 Sudeste 13 Sudeste 0 1011.7 2 42
2019-08-04 10:00:00 26.8 5 Sudoeste 13 Sur 0 1011.5 1.9 61
2019-08-04 09:00:00 24.8 4 Sudeste 11 Norte 0 1010.6 1.7 61
2019-08-04 08:00:00 23.9 6 Oeste 13 Noroeste 0 1009.7 0.5 59
2019-08-04 07:00:00 22.1 10 Sudoeste 13 Sur 0 1009.6 -0.1 69
2019-08-04 06:00:00 23.6 14 Noroeste 24 Noroeste 0 1008.9 -1.2 61
2019-08-04 05:00:00 22.6 11 Oeste 15 Oeste 0 1009.2 -1.7 82
2019-08-04 04:00:00 22.3 12 Oeste 13 Oeste 0 1009.7 -1.5 87
2019-08-04 03:00:00 23 7 Noroeste 11 Noroeste 0 1010.1 -1.1 86
2019-08-04 02:00:00 23.6 5 Oeste 9 Noroeste 0 1010.9 0.4 83
2019-08-04 01:00:00 24 6 Oeste 8 Oeste 0 1011.2 1.3 84
2019-08-04 00:00:00 24.3 5 Sur 11 Este 0 1011.2 2 81
2019-08-03 23:00:00 25.1 7 Este 11 Este 0 1010.5 1.1 79
2019-08-03 22:00:00 25.2 6 Nordeste 17 Este 0 1009.9 0.6 79
2019-08-03 21:00:00 25.9 9 Este 18 Este 0 1009.2 -0.4 75
2019-08-03 20:00:00 27 10 Este 21 Sudeste 0 1009.4 -0.9 64
2019-08-03 19:00:00 27.9 12 Este 24 Este 0 1009.3 -1.4 60
2019-08-03 18:00:00 28.6 14 Este 26 Este 0 1009.6 -2 62
2019-08-03 17:00:00 28.6 16 Este 28 Este 0 1010.3 -1.4 64
2019-08-03 16:00:00 28.9 17 Este 30 Este 0 1010.7 -1 62
2019-08-03 15:00:00 29.1 16 Este 26 Este 0 1011.6 -0.4 58
2019-08-03 14:00:00 29.8 16 Este 28 Este 0 1011.7 -0.4 47
2019-08-03 13:00:00 29.7 17 Este 28 Este 0 1011.7 -0.4 48
2019-08-03 12:00:00 29.4 16 Este 26 Este 0 1012 0.3 46
2019-08-03 11:00:00 28.8 12 Este 24 Este 0 1012.1 1 48
2019-08-03 10:00:00 27.6 7 Este 17 Norte 0 1012.1 1 65
2019-08-03 09:00:00 26.2 0 Calma 8 Sudeste 0 1011.7 1.2 76
2019-08-03 08:00:00 24.1 4 Norte 9 Norte 0 1011.1 0.5 83
2019-08-03 07:00:00 23.1 0 Calma 9 Norte 0 1011.1 0.5 83
2019-08-03 06:00:00 24.1 8 Norte 11 Norte 0 1010.5 -0.6 82
2019-08-03 05:00:00 23.4 4 Oeste -- -- 0 1010.6 -1 81
2019-08-03 04:00:00 24.4 8 Noroeste 11 Norte 0 1010.6 -1.3 78
2019-08-03 03:00:00 24.4 5 Noroeste 13 Norte 0 1011.1 -0.9 80
2019-08-03 02:00:00 24.5 3 Norte 11 Norte 0 1011.6 -0.2 81
2019-08-03 01:00:00 25.3 6 Nordeste 13 Nordeste 0 1011.9 1.4 80
2019-08-03 00:00:00 25.7 9 Este 15 Este 0 1012 2.4 78
2019-08-02 23:00:00 25.8 11 Este 21 Este 0 1011.8 2.8 76
2019-08-02 22:00:00 26 14 Este 21 Este 0 1010.5 1.4 77
2019-08-02 21:00:00 26.4 13 Este 18 Norte 0 1009.6 -0.4 75
2019-08-02 20:00:00 28 10 Este 17 Este 0 1009 -1.7 68
2019-08-02 19:00:00 28.2 11 Este 21 Este 0 1009.1 -2 68
2019-08-02 18:00:00 30.1 15 Este 24 Este 0 1010 -1.6 57
2019-08-02 17:00:00 29.7 13 Sur 26 Sudeste 0 1010.7 -1 59
2019-08-02 16:00:00 30.1 13 Sur 24 Sur 0 1011.1 -0.7 58
2019-08-02 15:00:00 30.2 12 Sur 32 Sur 0 1011.6 0 56
2019-08-02 14:00:00 30.1 15 Sur 33 Sur 0 1011.7 0.5 54
2019-08-02 13:00:00 29.6 14 Sur 26 Sur 0 1011.8 1 59
2019-08-02 12:00:00 29 8 Sur 18 Sur 0 1011.6 1.1 61
2019-08-02 11:00:00 27.6 8 Sudeste 15 Sudeste 0 1011.2 1.3 69
2019-08-02 10:00:00 25.7 5 Sur 13 Sur 0 1010.8 1.6 78
2019-08-02 09:00:00 25.3 4 Sudeste 9 Sudeste 0 1010.5 1.9 77
2019-08-02 08:00:00 23.4 4 Oeste 11 Oeste 0 1009.9 0.9 80
2019-08-02 07:00:00 22.5 0 Calma 15 Nordeste 0 1009.2 0.1 84
2019-08-02 06:00:00 23.2 10 Noroeste 15 Noroeste 0 1008.6 -0.6 83
2019-08-02 05:00:00 22.8 8 Sudoeste 13 Oeste 0 1009 -0.9 85
2019-08-02 04:00:00 22.9 9 Sur 11 Sudoeste 0 1009.1 -1 84
2019-08-02 03:00:00 23.4 5 Noroeste -- -- 0 1009.2 -1.2 82
2019-08-02 02:00:00 24 5 Norte 11 Oeste 0 1009.9 0 81
2019-08-02 01:00:00 24.1 11 Oeste 11 Oeste 0 1010.1 0.9 82
2019-08-02 00:00:00 24.3 6 Oeste 9 Oeste 0 1010.4 2 81
2019-08-01 23:00:00 25 6 Oeste 8 Oeste 0 1009.9 2.2 79
2019-08-01 22:00:00 25.5 4 Sur 17 Sudeste 0 1009.2 2.2 78
2019-08-01 21:00:00 26.1 12 Sudeste 28 Sudeste 0 1008.4 1.3 74
2019-08-01 20:00:00 26.9 18 Este 28 Este 0 1007.7 0.3 71
2019-08-01 19:00:00 28.4 17 Nordeste 30 Este 0 1007 -0.8 62
2019-08-01 18:00:00 28.5 16 Este 26 Este 0 1007.1 -1 63
2019-08-01 17:00:00 30.1 15 Este 26 Este 0 1007.4 -2.2 58
2019-08-01 16:00:00 28.7 9 Este 33 Nordeste 0 1007.8 -1.7 60
2019-08-01 15:00:00 27.4 21 Este 33 Este 0 1008.1 -1.1 63
2019-08-01 14:00:00 29.1 11 Sudeste 28 Sudeste 0 1009.6 0.9 51
2019-08-01 13:00:00 30.3 17 Sudeste 30 Sudeste 0 1009.5 0.4 41
2019-08-01 12:00:00 31.3 9 Sudeste 18 Sudeste 0 1009.2 0 34
2019-08-01 11:00:00 30 4 Este 13 Nordeste 0 1008.7 -0.4 39
2019-08-01 10:00:00 27.7 9 Noroeste 22 Noroeste 0 1009.1 0.2 51
2019-08-01 09:00:00 25.8 15 Oeste 24 Oeste 0 1009.2 0.4 59
2019-08-01 08:00:00 23.1 8 Oeste 21 Noroeste 0 1009.1 0.4 68
2019-08-01 07:00:00 22.6 10 Oeste 18 Oeste 0 1008.9 -0.2 69
2019-08-01 06:00:00 22.4 10 Oeste 18 Noroeste 0 1008.8 -0.2 69
2019-08-01 05:00:00 23.2 12 Noroeste 24 Noroeste 0 1008.7 -1.4 65
2019-08-01 04:00:00 23.1 15 Oeste 22 Oeste 0 1009.1 -0.8 67
2019-08-01 03:00:00 22.3 10 Oeste 17 Oeste 0 1009 -0.8 73
2019-08-01 02:00:00 23.1 8 Oeste 13 Oeste 0 1010.1 -0.6 74
2019-08-01 01:00:00 23.9 4 Nordeste 24 Norte 0 1009.9 -0.2 75
2019-08-01 00:00:00 25.1 14 Norte 35 Este 0 1009.8 -0.2 71
2019-07-31 23:00:00 25.7 17 Nordeste 39 Norte 0 1010.7 2 73
2019-07-31 22:00:00 26.1 24 Nordeste 37 Este 0 1010.1 1.6 72
2019-07-31 21:00:00 26.5 28 Este 46 Este 0 1010 0.4 66
2019-07-31 20:00:00 27.3 34 Este 59 Este 0 1008.7 -1.4 63
2019-07-31 19:00:00 28.4 39 Este 55 Este 0 1008.5 -2.7 54
2019-07-31 18:00:00 28.2 35 Nordeste 55 Nordeste 0 1009.6 -1.7 55
2019-07-31 17:00:00 28.7 32 Nordeste 54 Este 0 1010.1 -1.4 54
2019-07-31 16:00:00 28.5 34 Este 54 Este 0 1011.2 -1.3 56
2019-07-31 15:00:00 27.4 38 Este 52 Este 0 1011.3 -1.5 64
2019-07-31 14:00:00 26.9 31 Este 52 Este 0 1011.5 -1.4 67
2019-07-31 13:00:00 26.8 33 Este 50 Este 0 1012.5 1.2 69
2019-07-31 12:00:00 28.4 34 Este 46 Este 0 1012.8 0.6 65
2019-07-31 11:00:00 27.9 35 Este 55 Este 0 1012.9 1.2 66
2019-07-31 10:00:00 27.1 37 Nordeste 55 Nordeste 0 1011.3 0.9 65
2019-07-31 09:00:00 25.8 35 Este 52 Este 0 1012.2 0.8 69
2019-07-31 08:00:00 24 10 Sudoeste 30 Nordeste 0 1011.7 0.2 58
2019-07-31 07:00:00 23.5 7 Norte 17 Norte 0 1010.4 -1.1 69
2019-07-31 06:00:00 23.8 9 Noroeste 18 Noroeste 0 1011.4 -0.7 69
2019-07-31 05:00:00 23.4 6 Noroeste 15 Norte 0 1011.5 0.3 74
2019-07-31 04:00:00 24.2 9 Nordeste 26 Este 0 1011.5 0.2 73
2019-07-31 03:00:00 25 19 Este 32 Nordeste 0 1012.1 0.9 72
2019-07-31 02:00:00 24.7 19 Este 35 Este 0 1011.2 0.5 77
2019-07-31 01:00:00 25.1 27 Este 35 Este 0 1011.3 1.2 77
2019-07-31 00:00:00 25.2 20 Este 28 Este 0 1011.2 1.4 75
2019-07-30 23:00:00 25.2 15 Este 24 Este 0 1010.7 1.2 80
2019-07-30 22:00:00 25.5 13 Este 22 Este 0 1010.1 0.7 78
2019-07-30 21:00:00 26 16 Este 24 Este 0 1009.8 0 77
2019-07-30 20:00:00 26.4 18 Nordeste 28 Este 0 1009.5 -0.5 75
2019-07-30 19:00:00 27 18 Este 32 Este 0 1009.4 -0.9 73
2019-07-30 18:00:00 27.7 17 Este 30 Este 0 1009.8 -0.6 69
2019-07-30 17:00:00 27.9 16 Este 30 Este 0 1010 -0.5 68
2019-07-30 16:00:00 27.8 16 Este 33 Norte 0 1010.3 0 67
2019-07-30 15:00:00 28.4 21 Este 35 Este 0 1010.4 0.2 66
2019-07-30 14:00:00 28.9 19 Este 32 Este 0 1010.5 0.6 65
2019-07-30 13:00:00 29.6 19 Este 30 Este 0 1010.3 0.7 61
2019-07-30 12:00:00 28.7 16 Este 26 Este 0 1010.2 1 57
2019-07-30 11:00:00 27.6 15 Este 26 Sudeste 0 1009.9 1.3 65
2019-07-30 10:00:00 27.2 9 Nordeste 15 Nordeste 0 1009.6 1.2 62
2019-07-30 09:00:00 25.4 5 Nordeste 15 Norte 0 1009.2 1.3 72
2019-07-30 08:00:00 22.1 8 Norte 15 Nordeste 0 1008.6 0.8 84
2019-07-30 07:00:00 21.6 8 Norte 15 Nordeste 0 1008.4 0.8 89
2019-07-30 06:00:00 21.7 8 Oeste 11 Oeste 0 1007.9 0.1 91
2019-07-30 05:00:00 21.6 6 Oeste 8 Oeste 0 1007.8 -0.3 87
2019-07-30 04:00:00 22.3 8 Oeste -- -- 0 1007.6 -0.9 86
2019-07-30 03:00:00 22.5 5 Oeste 8 Oeste 0 1007.8 -0.6 83
2019-07-30 02:00:00 23.4 4 Oeste 5 Oeste 0 1008.1 -0.1 84
2019-07-30 01:00:00 23.7 3 Sudoeste 5 Oeste 0 1008.5 0.8 82
2019-07-30 00:00:00 24.1 3 Sudoeste 5 Sudoeste 0 1008.4 1.3 80
2019-07-29 23:00:00 24.4 0 Calma 9 Sur 0 1008.2 1.5 79
2019-07-29 22:00:00 24.7 7 Sudeste 15 Sudeste 0 1007.7 1.3 76
2019-07-29 21:00:00 26 8 Sudeste 15 Sudeste 0 1007.1 0.4 67
2019-07-29 20:00:00 27.4 9 Sur 17 Sur 0 1006.7 -0.4 57
2019-07-29 19:00:00 28.6 9 Sur 24 Sudeste 0 1006.4 -1 49
2019-07-29 18:00:00 29.6 12 Sur 24 Sur 0 1006.7 -0.9 43
2019-07-29 17:00:00 29.6 14 Sur 26 Sudeste 0 1007.1 -0.6 43
2019-07-29 16:00:00 30.5 14 Sur 26 Sur 0 1007.4 -0.6 44
2019-07-29 15:00:00 30.2 15 Sur 30 Sudeste 0 1007.6 -0.4 50
2019-07-29 14:00:00 31.2 16 Sur 28 Sur 0 1007.7 -0.2 40
2019-07-29 13:00:00 31.8 15 Sur 26 Sur 0 1008 0.1 35
2019-07-29 12:00:00 30.9 11 Sur 28 Sur 0 1008 0 38
2019-07-29 11:00:00 29.1 8 Sudeste 17 Sudeste 0 1007.9 0 51
2019-07-29 10:00:00 27.4 4 Norte 13 Norte 0 1007.9 0.4 63
2019-07-29 09:00:00 25.2 5 Noroeste 11 Oeste 0 1008 1 76
2019-07-29 08:00:00 22.9 6 Oeste 11 Oeste 0 1007.9 1.1 84
2019-07-29 07:00:00 21.2 6 Noroeste 9 Noroeste 0 1007.5 0.7 87
2019-07-29 06:00:00 21.5 3 Noroeste 8 Oeste 0 1007 0.1 87
2019-07-29 05:00:00 21.5 5 Oeste 8 Oeste 0 1006.8 -0.4 87
2019-07-29 04:00:00 22 4 Oeste 8 Oeste 0 1006.8 -0.8 87
2019-07-29 03:00:00 22.5 6 Noroeste 8 Noroeste 0 1006.9 -0.8 86
2019-07-29 02:00:00 22.7 5 Oeste 8 Oeste 0 1007.2 -0.5 85
2019-07-29 01:00:00 23.5 4 Sur 5 Sur 0 1007.6 0.6 84
2019-07-29 00:00:00 24.1 4 Sur 8 Sudeste 0 1007.7 1.1 82
2019-07-28 23:00:00 25 5 Este 11 Este 0 1007.7 1.5 78
2019-07-28 22:00:00 25.1 7 Este 13 Este 0 1007 1 77
2019-07-28 21:00:00 25.9 10 Este 18 Este 0 1006.6 0.5 74
2019-07-28 20:00:00 26.6 14 Este 22 Este 0 1006.2 -0.2 71
2019-07-28 19:00:00 27.4 15 Este 28 Este 0 1006 -0.7 68
2019-07-28 18:00:00 27.7 19 Este 30 Sudeste 0 1006.1 -0.5 68
2019-07-28 17:00:00 28.2 22 Este 37 Este 0 1006.4 -0.1 64
2019-07-28 16:00:00 28.7 26 Este 37 Este 0 1006.7 0 60
2019-07-28 15:00:00 30 21 Sudeste 39 Sudeste 0 1006.6 -0.2 57
2019-07-28 14:00:00 30.4 21 Sur 35 Sudeste 0 1006.5 -0.4 45
2019-07-28 13:00:00 30.8 21 Sudeste 33 Sudeste 0 1006.7 -0.1 43
2019-07-28 12:00:00 29.6 13 Sudeste 28 Sudeste 0 1006.8 0.3 44
2019-07-28 11:00:00 29.2 12 Sur 22 Sur 0 1006.9 -- 50
2019-07-28 10:00:00 28 12 Sudeste 21 Sudeste 0 1006.8 1.4 55
2019-07-28 09:00:00 26.6 4 Noroeste 15 Oeste 0 1006.5 1.8 41
2019-07-28 08:00:00 25.4 10 Oeste 15 Noroeste 0 -- -- 44
2019-07-28 07:00:00 24 9 Noroeste 13 Noroeste 0 1005.4 1.2 52
2019-07-28 06:00:00 23.6 7 Oeste 9 Noroeste 0 1004.7 0.5 49
2019-07-28 05:00:00 26 10 Noroeste 21 Noroeste 0 -- -- 42
2019-07-28 04:00:00 27.1 16 Noroeste 24 Noroeste 0 1004.2 0.4 39
2019-07-28 03:00:00 26.5 13 Oeste 22 Oeste 0 1004.2 0.6 38
2019-07-28 02:00:00 27.7 12 Oeste 32 Oeste 0 1004.1 1.1 35
2019-07-28 01:00:00 28.6 17 Oeste 30 Oeste 0 1003.8 2.2 34
2019-07-28 00:00:00 29.9 20 Oeste 35 Oeste 0 1003.6 3.1 33
2019-07-27 23:00:00 31.1 23 Oeste 33 Noroeste 0 1003 3.2 29
2019-07-26 12:00:00 30.3 11 Sur 21 Sudoeste 0 1007.3 -0.8 47
2019-07-26 11:00:00 29.2 10 Sur 18 Sur 0 1007.8 0.1 58
2019-07-26 10:00:00 27.6 5 Sudoeste 13 Sudoeste 0 1008 0.2 64
2019-07-26 09:00:00 25.6 0 Calma 8 Sudoeste 0 1008.1 0.4 70
2019-07-26 08:00:00 22.9 0 Calma 9 Norte 0 1007.7 0 80
2019-07-26 07:00:00 21.5 0 Calma 8 Oeste 0 1007.8 0.1 80
2019-07-26 06:00:00 21.6 4 Oeste 11 Oeste 0 1007.7 -0.6 74
2019-07-26 05:00:00 21.7 10 Oeste 13 Oeste 0 1007.7 -1.5 65
2019-07-26 04:00:00 22.3 7 Oeste 9 Oeste 0 1007.7 -1.9 83
2019-07-26 03:00:00 23.2 2 Noroeste -- -- 0 1008.3 -1.6 86
2019-07-26 02:00:00 23.7 8 Oeste 9 Oeste 0 1009.2 -0.9 87
2019-07-26 01:00:00 24.6 4 Sudoeste 8 Este 0 1009.6 0.1 87
2019-07-26 00:00:00 25.3 5 Este 13 Este 0 1009.9 0.8 86
2019-07-25 23:00:00 25.6 8 Nordeste 17 Este 0 1010.1 1.3 85
2019-07-25 22:00:00 26 10 Este 21 Este 0 1009.5 0.7 81
2019-07-25 21:00:00 27.1 12 Este 17 Este 0 1009.1 -0.1 70
2019-07-25 20:00:00 28.8 14 Este 22 Este 0 1008.8 -1 52
2019-07-25 19:00:00 30.5 14 Este 24 Este 0 1008.8 -1.4 38
2019-07-25 18:00:00 31.3 16 Este 30 Este 0 1009.2 -1.4 36
2019-07-25 17:00:00 31.8 17 Este 24 Este 0 1009.8 -1.1 32
2019-07-25 16:00:00 32.4 16 Este 30 Nordeste 0 1010.2 -1 33
2019-07-25 15:00:00 31.9 21 Este 32 Este 0 1010.6 -0.9 36
2019-07-25 14:00:00 31.8 21 Este 32 Este 0 1010.9 -0.6 36
2019-07-25 13:00:00 31.1 19 Este 28 Este 0 1011.2 0.1 43
2019-07-25 12:00:00 30.9 14 Este 22 Nordeste 0 1011.5 0.6 44
2019-07-25 11:00:00 30.6 13 Este 18 Este 0 1011.5 0.8 37
2019-07-25 10:00:00 30.1 8 Este 13 Este 0 1011.1 0.9 27
2019-07-25 09:00:00 28.8 2 Sudeste 8 Sudeste 0 1010.9 1.1 28
2019-07-25 08:00:00 24.5 8 Sudoeste 9 Sudoeste 0 1010.7 0.5 40
2019-07-25 07:00:00 24.6 7 Noroeste 11 Noroeste 0 1010.2 -0.4 37
2019-07-25 06:00:00 25.7 7 Noroeste 15 Noroeste 0 1009.8 -1.2 34
2019-07-25 05:00:00 25 12 Noroeste 15 Noroeste 0 1010.2 -1 38
2019-07-25 04:00:00 25 8 Oeste 11 Noroeste 0 1010.6 -1 39
2019-07-25 03:00:00 26.8 4 Norte 18 Norte 0 1011 -0.5 35
2019-07-25 02:00:00 26.2 11 Norte 15 Norte 0 1011.2 -0.3 43
2019-07-25 01:00:00 24.4 6 Norte 13 Este 0 1011.6 0.5 50
2019-07-25 00:00:00 25.7 6 Norte 18 Este 0 1011.5 0.7 60
2019-07-24 23:00:00 26.6 13 Este 18 Este 0 1011.5 0.8 59
2019-07-24 22:00:00 27 10 Este 18 Este 0 1011.1 0.4 59
2019-07-24 21:00:00 28 11 Nordeste 22 Este 0 1010.8 -0.4 55
2019-07-24 20:00:00 29.6 14 Este 22 Este 0 1010.7 -0.7 44
2019-07-24 19:00:00 31.6 16 Este 24 Este 0 1010.7 -1.1 29
2019-07-24 18:00:00 32.1 16 Este 28 Este 0 1011.2 -1 29
2019-07-24 17:00:00 31.8 23 Este 35 Este 0 1011.4 -1.1 32
2019-07-24 16:00:00 31.5 26 Este 33 Este 0 1011.8 -0.6 33
2019-07-24 15:00:00 32.5 24 Este 37 Este 0 1012.2 -0.4 31
2019-07-24 14:00:00 33 24 Este 33 Este 0 1012.5 0.1 26
2019-07-24 13:00:00 32.9 21 Este 30 Este 0 1012.4 0.5 25
2019-07-24 12:00:00 33 14 Este 24 Este 0 1012.6 0.9 24
2019-07-24 11:00:00 32.7 13 Este 21 Este 0 1012.4 1 19
2019-07-24 10:00:00 32.1 9 Nordeste 15 Este 0 1011.9 0.5 20
2019-07-24 09:00:00 29.8 9 Norte 17 Norte 0 1011.7 0.1 24
2019-07-24 08:00:00 25.4 10 Norte 15 Norte 0 1011.4 -0.4 31
2019-07-24 07:00:00 24.3 9 Norte 13 Norte 0 1011.4 -0.5 32
2019-07-24 06:00:00 24.1 8 Norte 11 Norte 0 1011.6 -0.6 34
2019-07-24 05:00:00 23.9 0 Calma -- -- 0 1011.8 -0.7 39
2019-07-24 04:00:00 25 4 Noroeste 13 Norte 0 1011.9 -1.1 42
2019-07-24 03:00:00 25.2 8 Norte 17 Nordeste 0 1012.2 -0.5 53
2019-07-24 02:00:00 24.8 8 Norte 15 Nordeste 0 1012.5 0.1 61
2019-07-24 01:00:00 24.5 2 Nordeste 8 Nordeste 0 1013 1.2 54
2019-07-24 00:00:00 27 0 Calma 11 Norte 0 1012.7 -- 49
2019-07-23 23:00:00 27.2 3 Norte 15 Este 0 1012.4 0.9 48
2019-07-23 22:00:00 27.5 10 Nordeste 22 Este 0 1011.8 0.1 51
2019-07-23 21:00:00 28.7 12 Nordeste 30 Este 0 -- -- --
2019-07-23 20:00:00 30.1 23 Este 33 Este 0 1011.5 -1.2 41
2019-07-23 19:00:00 31.2 22 Nordeste 32 Nordeste 0 1011.7 -1.6 36
2019-07-23 18:00:00 32.4 22 Este 32 Este 0 1012.2 -1.3 29
2019-07-23 17:00:00 32.8 24 Este 33 Nordeste 0 1012.7 -1.1 28
2019-07-23 16:00:00 33 23 Este 33 Este 0 1013.3 -0.7 27
2019-07-23 15:00:00 34.1 25 Este 33 Este 0 1013.5 -0.7 20
2019-07-23 14:00:00 33.9 21 Este 35 Este 0 1013.8 -0.5 21
2019-07-23 13:00:00 33 26 Este 35 Este 0 1014 -0.1 25
2019-07-23 12:00:00 32 18 Este 28 Este 0 1014.2 0.3 30
2019-07-23 11:00:00 31.9 15 Este 24 Este 0 1014.3 -- 26
2019-07-23 10:00:00 31 12 Este 21 Este 0 1014.1 0.3 28
2019-07-23 09:00:00 30 8 Nordeste 18 Norte 0 1013.9 0 34
2019-07-23 08:00:00 26.9 10 Norte 17 Norte 0 -- -- 44
2019-07-23 07:00:00 22.1 5 Norte 8 Norte 0 1013.8 -0.4 59
2019-07-23 06:00:00 22.8 4 Norte 9 Norte 0 1013.9 -0.8 50
2019-07-23 05:00:00 26.1 7 Norte 13 Norte 0 1014 -1.1 41
2019-07-23 04:00:00 26.1 7 Norte 9 Norte 0 1014.2 -1.3 34
2019-07-23 03:00:00 23.7 2 Norte 11 Norte 0 1014.7 -0.7 48
2019-07-23 02:00:00 25.9 6 Nordeste 11 Nordeste 0 1015.1 -0.4 49
2019-07-23 01:00:00 25.8 8 Nordeste 15 Nordeste 0 1015.5 0.1 57
2019-07-23 00:00:00 26.4 12 Nordeste 30 Este 0 1015.4 0.3 60
2019-07-22 23:00:00 26.8 19 Este 30 Este 0 1015.5 0.6 61
2019-07-22 22:00:00 27 17 Este 30 Este 0 1015.4 0.2 64
2019-07-22 21:00:00 27.7 20 Este 33 Este 0 1015.1 -- 62
2019-07-22 20:00:00 29 22 Este 35 Este 0 1014.9 -1.2 51
2019-07-22 19:00:00 30.1 26 Este 41 Este 0 1015.2 -1.3 46
2019-07-22 18:00:00 30.5 30 Este 46 Este 0 -- -- 43
2019-07-22 17:00:00 31 29 Este 45 Este 0 1016.1 -1 39
2019-07-22 16:00:00 31.6 31 Este 45 Este 0 1016.5 -0.6 32
2019-07-22 15:00:00 32.2 32 Este 42 Este 0 1017.1 -0.1 29
2019-07-22 14:00:00 32.6 32 Este 45 Este 0 1017.1 -0.1 30
2019-07-22 13:00:00 31.8 30 Este 46 Este 0 1017.1 -0.1 35
2019-07-22 12:00:00 31.3 32 Este 45 Este 0 1017.2 0.4 34
2019-07-22 11:00:00 30.6 31 Este 42 Este 0 1017.2 0.7 40
2019-07-22 10:00:00 28.5 24 Este 35 Este 0 1017.2 1.4 60
2019-07-22 09:00:00 27.9 16 Este 26 Este 0 1016.8 1.1 63
2019-07-22 08:00:00 25.2 5 Este 13 Nordeste 0 1016.5 0.9 53
2019-07-22 07:00:00 23.9 8 Norte 13 Nordeste 0 1015.8 -0.2 52
2019-07-22 06:00:00 24.1 4 Noroeste 8 Oeste 0 1015.7 -0.6 51
2019-07-22 05:00:00 24.8 7 Nordeste 15 Nordeste 0 1015.6 -1 49
2019-07-22 04:00:00 25.9 8 Nordeste 17 Norte 0 1016 -1.1 47
2019-07-22 03:00:00 24.9 7 Norte 18 Nordeste 0 1016.3 -1.1 53
2019-07-22 02:00:00 25.1 10 Norte 13 Norte 0 1016.6 -0.5 55
2019-07-22 01:00:00 26.7 7 Norte 15 Nordeste 0 1017.1 1 52
2019-07-22 00:00:00 26.6 10 Nordeste 24 Este 0 1017.4 2.8 64
2019-07-21 23:00:00 27.3 17 Este 33 Este 0 1017.1 3.1 60
2019-07-21 22:00:00 27.3 26 Nordeste 45 Este 0 1016.1 2.2 65
2019-07-21 21:00:00 27.4 33 Este 46 Este 0 1014.6 -- 71
2019-07-21 20:00:00 28.3 35 Este 54 Este 0 1014 -0.3 67
2019-07-21 19:00:00 29.4 32 Este 46 Este 0 1013.9 -0.8 61
2019-07-21 18:00:00 31.8 36 Este 52 Este 0 -- -- 45
2019-07-21 17:00:00 32.8 39 Este 52 Este 0 1014.3 -0.7 40
2019-07-21 16:00:00 32.3 38 Este 50 Este 0 1014.7 -0.4 45
2019-07-21 15:00:00 33.9 35 Este 54 Este 0 1014.8 0.1 29
2019-07-21 14:00:00 33.6 36 Nordeste 54 Este 0 1015 0.6 28
2019-07-21 13:00:00 32.8 38 Este 50 Este 0 1015.1 0.6 31
2019-07-21 12:00:00 31.7 34 Este 48 Este 0 1014.7 0.7 38
2019-07-21 11:00:00 30.2 35 Este 48 Este 0 1014.4 1.2 53
2019-07-21 10:00:00 28.9 14 Este 26 Este 0 1014.5 1.8 53
2019-07-21 09:00:00 29.4 6 Sudeste 9 Sudeste 0 1014 1.4 36
2019-07-21 08:00:00 25.3 5 Oeste 11 Noroeste 0 1013.2 0.6 51
2019-07-21 07:00:00 24.1 7 Oeste 13 Noroeste 0 1012.7 0.5 48
2019-07-21 06:00:00 24.6 5 Noroeste 11 Noroeste 0 1012.6 0.1 46
2019-07-21 05:00:00 23.6 10 Oeste 13 Oeste 0 1012.6 -0.2 47
2019-07-21 04:00:00 27 10 Nordeste 17 Nordeste 0 1012.2 -1 38
2019-07-21 03:00:00 26.9 10 Norte 15 Nordeste 0 1012.5 -1.1 37
2019-07-21 02:00:00 27.4 11 Nordeste 22 Nordeste 0 1012.8 -1 39
2019-07-21 01:00:00 27.6 15 Nordeste 26 Nordeste 0 1013.2 0.3 42
2019-07-21 00:00:00 28.1 17 Nordeste 28 Nordeste 0 1013.6 1.4 46
2019-07-20 23:00:00 28.1 17 Nordeste 28 Este 0 1013.8 2.4 50
2019-07-20 22:00:00 27.9 17 Nordeste 28 Este 0 1012.9 2.3 56
2019-07-20 21:00:00 28.4 17 Este 35 Este 0 1012.2 1.6 53
2019-07-20 20:00:00 29.7 26 Este 37 Este 0 1011.4 0.6 49
2019-07-20 19:00:00 31.2 24 Nordeste 42 Nordeste 0 1010.6 -0.6 42
2019-07-20 18:00:00 31.3 29 Este 45 Nordeste 0 1010.6 -0.6 44
2019-07-20 17:00:00 30.7 31 Este 54 Este 0 1010.8 0.1 48
2019-07-20 16:00:00 30.8 40 Este 55 Este 0 1011.2 0.5 50
2019-07-20 15:00:00 30.9 40 Este 55 Este 0 1011.2 0.6 49
2019-07-20 14:00:00 30.6 33 Este 48 Este 0 1010.7 0.6 53
2019-07-20 13:00:00 31.6 33 Este 45 Este 0 1010.7 0.4 46
2019-07-20 12:00:00 30.8 21 Este 32 Este 0 1010.6 0.2 46
2019-07-20 11:00:00 32.3 9 Nordeste 22 Norte 0 1010.1 0.2 31
2019-07-20 10:00:00 29.6 10 Este 17 Este 0 1010.3 1.1 42
2019-07-20 09:00:00 27.3 5 Oeste 13 Oeste 0 1010.4 1 41
2019-07-20 08:00:00 23.4 8 Sudoeste 13 Sudoeste 0 1009.9 0.4 52
2019-07-20 07:00:00 23.7 8 Norte 13 Nordeste 0 1009.2 -0.8 48
2019-07-20 06:00:00 24.1 5 Norte 15 Nordeste 0 1009.4 -0.8 48
2019-07-20 05:00:00 24.2 11 Norte 18 Nordeste 0 1009.5 -1.3 50
2019-07-20 04:00:00 24.7 6 Norte 13 Norte 0 1010 -1.2 52
2019-07-20 03:00:00 25.5 10 Norte 15 Nordeste 0 1010.2 -0.4 54
2019-07-20 02:00:00 25 10 Nordeste 18 Nordeste 0 1010.8 0.5 65
2019-07-20 01:00:00 25.3 16 Nordeste 28 Este 0 1011.2 0.9 66
2019-07-20 00:00:00 25.6 13 Nordeste 30 Nordeste 0 1010.6 0.5 70
2019-07-19 23:00:00 25.7 18 Nordeste 30 Nordeste 0 1010.3 0.2 74
2019-07-19 22:00:00 25.9 18 Este 30 Este 0 1010.3 0 73
2019-07-19 21:00:00 26.8 19 Nordeste 33 Este 0 1010.1 -0.6 65
2019-07-19 20:00:00 27.5 23 Nordeste 35 Nordeste 0 1010.1 -0.8 64
2019-07-19 19:00:00 28.5 24 Este 37 Norte 0 1010.3 -1 61
2019-07-19 18:00:00 28.8 25 Este 37 Este 0 1010.7 -1.3 59
2019-07-19 17:00:00 29.1 27 Este 39 Este 0 1010.9 -1.3 62
2019-07-19 16:00:00 29.9 26 Este 37 Este 0 1011.3 -1.2 51
2019-07-19 15:00:00 29.9 23 Este 33 Este 0 1012 -0.8 53
2019-07-19 14:00:00 30.1 21 Este 32 Este 0 1012.2 -0.6 43
2019-07-19 13:00:00 30.3 19 Este 28 Este 0 1012.5 -0.3 40
2019-07-19 12:00:00 29.4 18 Este 30 Este 0 1012.8 0.4 46
2019-07-19 11:00:00 28 15 Nordeste 24 Nordeste 0 1012.8 0.9 62
2019-07-19 10:00:00 26.9 13 Nordeste 24 Este 0 1012.8 1.3 69
2019-07-19 09:00:00 26.7 10 Norte 17 Norte 0 1012.4 1.3 68
2019-07-19 08:00:00 23.6 9 Norte 13 Norte 0 1011.9 0.8 68
2019-07-19 07:00:00 21.2 3 Oeste 13 Norte 0 1011.5 0.1 75
2019-07-19 06:00:00 22.2 9 Norte 11 Norte 0 1011.1 -0.8 75
2019-07-19 05:00:00 23 9 Norte 11 Norte 0 1011.1 -0.9 74
2019-07-19 04:00:00 23.4 5 Noroeste 9 Norte 0 1011.4 -0.5 71
2019-07-19 03:00:00 22.7 7 Noroeste -- -- 0 1011.9 0.1 77
2019-07-19 02:00:00 23.3 5 Noroeste 5 Noroeste 0 1012 0.2 76
2019-07-19 01:00:00 23.7 0 Calma 4 Sudoeste 0 1011.9 0.8 74
2019-07-19 00:00:00 25.1 2 Sudeste 5 Sudeste 0 1011.8 1.2 71